Terminal Aerodrome Forecast
Issued by NWS

Home | Current Version | Previous Version | Text Only | Print | Product List | Glossary On
Versions: 1 2 3 4 5 6 7 8 9 10 11 12 13 14 15 16 17 18 19 20 21 22 23 24 25 26 27 28 29 30 31 32 33 34 35 36 37 38 39 40 41 42 43 44 45 46 47 48 49 50
856
FTAK31 PANC 051735
TAFACV
TAF
PACV 051735Z 0518/0618 10007KT P6SM -SHRA SCT025 OVC035
     FM052000 09011G17KT 5SM -RA BR OVC025
      TEMPO 0520/0523 BKN025 OVC035
     FM052300 09013G23KT 4SM -RA BR OVC015
     FM061200 16005KT P6SM -SHRA SCT015 BKN025=

USA.gov is the U.S. government's official web portal to all federal, state and local government web resources and services.